sensor_id;sensor_type;location;lat;lon;timestamp;P1;P2;P0
56688;PMS5003;42565;53.342;-1.534;2023-04-01T00:00:45;7;6;
56688;PMS5003;42565;53.342;-1.534;2023-04-01T00:03:12;7;6;
56688;PMS5003;42565;53.342;-1.534;2023-04-01T00:05:39;7;6;
56688;PMS5003;42565;53.342;-1.534;2023-04-01T00:08:06;4;4;
56688;PMS5003;42565;53.342;-1.534;2023-04-01T00:10:33;5;4;
56688;PMS5003;42565;53.342;-1.534;2023-04-01T00:13:00;4;4;
56688;PMS5003;42565;53.342;-1.534;2023-04-01T00:15:27;4;4;
56688;PMS5003;42565;53.342;-1.534;2023-04-01T00:17:55;6;5;
56688;PMS5003;42565;53.342;-1.534;2023-04-01T00:20:24;6;6;
56688;PMS5003;42565;53.342;-1.534;2023-04-01T00:22:52;6;6;
56688;PMS5003;42565;53.342;-1.534;2023-04-01T00:25:19;7;7;
56688;PMS5003;42565;53.342;-1.534;2023-04-01T00:27:45;6;6;
56688;PMS5003;42565;53.342;-1.534;2023-04-01T00:30:13;6;5;
56688;PMS5003;42565;53.342;-1.534;2023-04-01T00:32:40;5;5;
56688;PMS5003;42565;53.342;-1.534;2023-04-01T00:35:07;8;8;
56688;PMS5003;42565;53.342;-1.534;2023-04-01T00:37:35;6;6;
56688;PMS5003;42565;53.342;-1.534;2023-04-01T00:40:03;5;5;
56688;PMS5003;42565;53.342;-1.534;2023-04-01T00:42:48;7;6;
56688;PMS5003;42565;53.342;-1.534;2023-04-01T00:45:24;6;6;
56688;PMS5003;42565;53.342;-1.534;2023-04-01T00:47:55;6;6;
56688;PMS5003;42565;53.342;-1.534;2023-04-01T00:50:25;5;5;
56688;PMS5003;42565;53.342;-1.534;2023-04-01T00:52:54;6;6;
56688;PMS5003;42565;53.342;-1.534;2023-04-01T00:55:22;4;4;
56688;PMS5003;42565;53.342;-1.534;2023-04-01T00:57:49;4;4;
56688;PMS5003;42565;53.342;-1.534;2023-04-01T01:00:20;7;6;
56688;PMS5003;42565;53.342;-1.534;2023-04-01T01:02:47;6;5;
56688;PMS5003;42565;53.342;-1.534;2023-04-01T01:05:18;6;5;
56688;PMS5003;42565;53.342;-1.534;2023-04-01T01:07:53;6;6;
56688;PMS5003;42565;53.342;-1.534;2023-04-01T01:10:30;5;5;
56688;PMS5003;42565;53.342;-1.534;2023-04-01T01:13:03;6;6;
56688;PMS5003;42565;53.342;-1.534;2023-04-01T01:15:36;5;5;
56688;PMS5003;42565;53.342;-1.534;2023-04-01T01:18:09;6;5;
56688;PMS5003;42565;53.342;-1.534;2023-04-01T01:20:49;6;5;
56688;PMS5003;42565;53.342;-1.534;2023-04-01T01:23:40;5;5;
56688;PMS5003;42565;53.342;-1.534;2023-04-01T01:26:29;6;6;
56688;PMS5003;42565;53.342;-1.534;2023-04-01T01:29:08;8;7;
56688;PMS5003;42565;53.342;-1.534;2023-04-01T01:31:44;6;6;
56688;PMS5003;42565;53.342;-1.534;2023-04-01T01:34:18;6;4;
56688;PMS5003;42565;53.342;-1.534;2023-04-01T01:36:50;6;5;
56688;PMS5003;42565;53.342;-1.534;2023-04-01T01:39:24;5;5;
56688;PMS5003;42565;53.342;-1.534;2023-04-01T01:41:54;5;5;
56688;PMS5003;42565;53.342;-1.534;2023-04-01T01:44:24;5;5;
56688;PMS5003;42565;53.342;-1.534;2023-04-01T01:46:54;6;6;
56688;PMS5003;42565;53.342;-1.534;2023-04-01T01:49:23;6;6;
56688;PMS5003;42565;53.342;-1.534;2023-04-01T01:51:51;5;4;
56688;PMS5003;42565;53.342;-1.534;2023-04-01T01:54:18;6;5;
56688;PMS5003;42565;53.342;-1.534;2023-04-01T01:56:46;6;5;
56688;PMS5003;42565;53.342;-1.534;2023-04-01T01:59:15;8;7;
56688;PMS5003;42565;53.342;-1.534;2023-04-01T02:01:48;5;4;
56688;PMS5003;42565;53.342;-1.534;2023-04-01T02:04:17;5;5;
56688;PMS5003;42565;53.342;-1.534;2023-04-01T02:06:46;5;5;
56688;PMS5003;42565;53.342;-1.534;2023-04-01T02:09:17;5;5;
56688;PMS5003;42565;53.342;-1.534;2023-04-01T02:11:46;5;4;
56688;PMS5003;42565;53.342;-1.534;2023-04-01T02:14:17;6;5;
56688;PMS5003;42565;53.342;-1.534;2023-04-01T02:16:46;5;4;
56688;PMS5003;42565;53.342;-1.534;2023-04-01T02:19:19;5;4;
56688;PMS5003;42565;53.342;-1.534;2023-04-01T02:21:49;3;3;
56688;PMS5003;42565;53.342;-1.534;2023-04-01T02:24:19;4;4;
56688;PMS5003;42565;53.342;-1.534;2023-04-01T02:26:50;4;4;
56688;PMS5003;42565;53.342;-1.534;2023-04-01T02:29:19;4;4;
56688;PMS5003;42565;53.342;-1.534;2023-04-01T02:31:48;6;5;
56688;PMS5003;42565;53.342;-1.534;2023-04-01T02:34:17;5;5;
56688;PMS5003;42565;53.342;-1.534;2023-04-01T02:36:45;8;6;
56688;PMS5003;42565;53.342;-1.534;2023-04-01T02:39:14;3;3;
56688;PMS5003;42565;53.342;-1.534;2023-04-01T02:41:42;5;5;
56688;PMS5003;42565;53.342;-1.534;2023-04-01T02:44:10;4;4;
56688;PMS5003;42565;53.342;-1.534;2023-04-01T02:46:39;3;3;
56688;PMS5003;42565;53.342;-1.534;2023-04-01T02:49:07;4;4;
56688;PMS5003;42565;53.342;-1.534;2023-04-01T02:51:34;4;3;
56688;PMS5003;42565;53.342;-1.534;2023-04-01T02:54:02;4;4;
56688;PMS5003;42565;53.342;-1.534;2023-04-01T02:56:29;5;5;
56688;PMS5003;42565;53.342;-1.534;2023-04-01T02:58:56;6;4;
56688;PMS5003;42565;53.342;-1.534;2023-04-01T03:01:23;4;4;
56688;PMS5003;42565;53.342;-1.534;2023-04-01T03:03:50;3;3;
56688;PMS5003;42565;53.342;-1.534;2023-04-01T03:06:18;3;3;
56688;PMS5003;42565;53.342;-1.534;2023-04-01T03:08:45;3;2;
56688;PMS5003;42565;53.342;-1.534;2023-04-01T03:11:12;5;5;
56688;PMS5003;42565;53.342;-1.534;2023-04-01T03:13:40;4;4;
56688;PMS5003;42565;53.342;-1.534;2023-04-01T03:16:07;5;4;
56688;PMS5003;42565;53.342;-1.534;2023-04-01T03:18:35;6;5;
56688;PMS5003;42565;53.342;-1.534;2023-04-01T03:21:20;5;5;
56688;PMS5003;42565;53.342;-1.534;2023-04-01T03:23:51;6;5;
56688;PMS5003;42565;53.342;-1.534;2023-04-01T03:26:19;6;6;
56688;PMS5003;42565;53.342;-1.534;2023-04-01T03:28:47;5;4;
56688;PMS5003;42565;53.342;-1.534;2023-04-01T03:31:32;4;4;
56688;PMS5003;42565;53.342;-1.534;2023-04-01T03:34:00;5;5;
56688;PMS5003;42565;53.342;-1.534;2023-04-01T03:36:26;6;5;
56688;PMS5003;42565;53.342;-1.534;2023-04-01T03:38:54;3;2;
56688;PMS5003;42565;53.342;-1.534;2023-04-01T03:41:21;4;3;
56688;PMS5003;42565;53.342;-1.534;2023-04-01T03:43:48;1;1;
56688;PMS5003;42565;53.342;-1.534;2023-04-01T03:46:16;3;2;
56688;PMS5003;42565;53.342;-1.534;2023-04-01T03:48:43;2;2;
56688;PMS5003;42565;53.342;-1.534;2023-04-01T03:51:10;3;3;
56688;PMS5003;42565;53.342;-1.534;2023-04-01T03:53:37;2;1;
56688;PMS5003;42565;53.342;-1.534;2023-04-01T03:56:04;3;2;
56688;PMS5003;42565;53.342;-1.534;2023-04-01T03:58:32;4;4;
56688;PMS5003;42565;53.342;-1.534;2023-04-01T04:01:00;3;3;
56688;PMS5003;42565;53.342;-1.534;2023-04-01T04:03:27;2;2;
56688;PMS5003;42565;53.342;-1.534;2023-04-01T04:05:54;3;3;
56688;PMS5003;42565;53.342;-1.534;2023-04-01T04:08:21;4;4;
56688;PMS5003;42565;53.342;-1.534;2023-04-01T04:10:54;4;3;
56688;PMS5003;42565;53.342;-1.534;2023-04-01T04:13:21;3;2;
56688;PMS5003;42565;53.342;-1.534;2023-04-01T04:15:49;4;4;
56688;PMS5003;42565;53.342;-1.534;2023-04-01T04:18:16;2;2;
56688;PMS5003;42565;53.342;-1.534;2023-04-01T04:20:43;2;2;
56688;PMS5003;42565;53.342;-1.534;2023-04-01T04:23:11;1;1;
56688;PMS5003;42565;53.342;-1.534;2023-04-01T04:25:38;3;2;
56688;PMS5003;42565;53.342;-1.534;2023-04-01T04:28:04;2;2;
56688;PMS5003;42565;53.342;-1.534;2023-04-01T04:30:32;4;3;
56688;PMS5003;42565;53.342;-1.534;2023-04-01T04:32:59;3;3;
56688;PMS5003;42565;53.342;-1.534;2023-04-01T04:35:25;3;3;
56688;PMS5003;42565;53.342;-1.534;2023-04-01T04:37:52;4;4;
56688;PMS5003;42565;53.342;-1.534;2023-04-01T04:40:20;4;3;
56688;PMS5003;42565;53.342;-1.534;2023-04-01T04:42:47;2;2;
56688;PMS5003;42565;53.342;-1.534;2023-04-01T04:45:13;4;4;
56688;PMS5003;42565;53.342;-1.534;2023-04-01T04:47:41;2;2;
56688;PMS5003;42565;53.342;-1.534;2023-04-01T04:50:08;3;3;
56688;PMS5003;42565;53.342;-1.534;2023-04-01T04:52:35;2;2;
56688;PMS5003;42565;53.342;-1.534;2023-04-01T04:55:02;4;4;
56688;PMS5003;42565;53.342;-1.534;2023-04-01T04:57:31;2;2;
56688;PMS5003;42565;53.342;-1.534;2023-04-01T04:59:57;3;2;
56688;PMS5003;42565;53.342;-1.534;2023-04-01T05:02:24;3;3;
56688;PMS5003;42565;53.342;-1.534;2023-04-01T05:04:51;3;3;
56688;PMS5003;42565;53.342;-1.534;2023-04-01T05:07:18;5;5;
56688;PMS5003;42565;53.342;-1.534;2023-04-01T05:09:45;3;3;
56688;PMS5003;42565;53.342;-1.534;2023-04-01T05:12:11;7;5;
56688;PMS5003;42565;53.342;-1.534;2023-04-01T05:14:39;4;4;
56688;PMS5003;42565;53.342;-1.534;2023-04-01T05:17:08;3;3;
56688;PMS5003;42565;53.342;-1.534;2023-04-01T05:19:35;3;3;
56688;PMS5003;42565;53.342;-1.534;2023-04-01T05:22:03;4;4;
56688;PMS5003;42565;53.342;-1.534;2023-04-01T05:24:31;3;3;
56688;PMS5003;42565;53.342;-1.534;2023-04-01T05:26:59;3;3;
56688;PMS5003;42565;53.342;-1.534;2023-04-01T05:29:26;4;4;
56688;PMS5003;42565;53.342;-1.534;2023-04-01T05:31:53;4;4;
56688;PMS5003;42565;53.342;-1.534;2023-04-01T05:34:20;5;5;
56688;PMS5003;42565;53.342;-1.534;2023-04-01T05:36:47;4;4;
56688;PMS5003;42565;53.342;-1.534;2023-04-01T05:39:13;6;6;
56688;PMS5003;42565;53.342;-1.534;2023-04-01T05:41:40;5;5;
56688;PMS5003;42565;53.342;-1.534;2023-04-01T05:44:07;7;5;
56688;PMS5003;42565;53.342;-1.534;2023-04-01T05:46:38;4;4;
56688;PMS5003;42565;53.342;-1.534;2023-04-01T05:49:05;6;4;
56688;PMS5003;42565;53.342;-1.534;2023-04-01T05:51:32;5;5;
56688;PMS5003;42565;53.342;-1.534;2023-04-01T05:53:59;7;7;
56688;PMS5003;42565;53.342;-1.534;2023-04-01T05:56:26;5;5;
56688;PMS5003;42565;53.342;-1.534;2023-04-01T05:58:53;5;5;
56688;PMS5003;42565;53.342;-1.534;2023-04-01T06:01:20;4;3;
56688;PMS5003;42565;53.342;-1.534;2023-04-01T06:03:47;5;4;
56688;PMS5003;42565;53.342;-1.534;2023-04-01T06:06:15;5;3;
56688;PMS5003;42565;53.342;-1.534;2023-04-01T06:08:46;4;3;
56688;PMS5003;42565;53.342;-1.534;2023-04-01T06:11:16;4;4;
56688;PMS5003;42565;53.342;-1.534;2023-04-01T06:13:57;4;4;
56688;PMS5003;42565;53.342;-1.534;2023-04-01T06:16:44;2;2;
56688;PMS5003;42565;53.342;-1.534;2023-04-01T06:19:25;3;3;
56688;PMS5003;42565;53.342;-1.534;2023-04-01T06:22:04;2;2;
56688;PMS5003;42565;53.342;-1.534;2023-04-01T06:25:02;2;2;
56688;PMS5003;42565;53.342;-1.534;2023-04-01T06:27:48;3;2;
56688;PMS5003;42565;53.342;-1.534;2023-04-01T06:30:27;2;2;
56688;PMS5003;42565;53.342;-1.534;2023-04-01T06:33:14;4;3;
56688;PMS5003;42565;53.342;-1.534;2023-04-01T06:35:58;4;4;
56688;PMS5003;42565;53.342;-1.534;2023-04-01T06:38:41;4;3;
56688;PMS5003;42565;53.342;-1.534;2023-04-01T06:41:33;3;3;
56688;PMS5003;42565;53.342;-1.534;2023-04-01T06:44:20;4;4;
56688;PMS5003;42565;53.342;-1.534;2023-04-01T06:46:52;3;2;
56688;PMS5003;42565;53.342;-1.534;2023-04-01T06:49:31;5;4;
56688;PMS5003;42565;53.342;-1.534;2023-04-01T06:52:10;6;4;
56688;PMS5003;42565;53.342;-1.534;2023-04-01T06:54:47;3;3;
56688;PMS5003;42565;53.342;-1.534;2023-04-01T06:57:20;3;3;
56688;PMS5003;42565;53.342;-1.534;2023-04-01T06:59:55;5;4;
56688;PMS5003;42565;53.342;-1.534;2023-04-01T07:02:28;5;5;
56688;PMS5003;42565;53.342;-1.534;2023-04-01T07:05:03;6;5;
56688;PMS5003;42565;53.342;-1.534;2023-04-01T07:07:33;6;6;
56688;PMS5003;42565;53.342;-1.534;2023-04-01T07:10:06;5;4;
56688;PMS5003;42565;53.342;-1.534;2023-04-01T07:12:41;7;6;
56688;PMS5003;42565;53.342;-1.534;2023-04-01T07:15:13;5;5;
56688;PMS5003;42565;53.342;-1.534;2023-04-01T07:17:46;5;5;
56688;PMS5003;42565;53.342;-1.534;2023-04-01T07:20:20;3;3;
56688;PMS5003;42565;53.342;-1.534;2023-04-01T07:22:53;4;3;
56688;PMS5003;42565;53.342;-1.534;2023-04-01T07:25:25;4;4;
56688;PMS5003;42565;53.342;-1.534;2023-04-01T07:27:56;3;3;
56688;PMS5003;42565;53.342;-1.534;2023-04-01T07:30:30;3;3;
56688;PMS5003;42565;53.342;-1.534;2023-04-01T07:33:11;4;3;
56688;PMS5003;42565;53.342;-1.534;2023-04-01T07:35:44;3;3;
56688;PMS5003;42565;53.342;-1.534;2023-04-01T07:38:20;3;3;
56688;PMS5003;42565;53.342;-1.534;2023-04-01T07:40:55;3;3;
56688;PMS5003;42565;53.342;-1.534;2023-04-01T07:43:34;3;3;
56688;PMS5003;42565;53.342;-1.534;2023-04-01T07:46:20;3;3;
56688;PMS5003;42565;53.342;-1.534;2023-04-01T07:48:58;2;2;
56688;PMS5003;42565;53.342;-1.534;2023-04-01T07:51:32;3;2;
56688;PMS5003;42565;53.342;-1.534;2023-04-01T07:54:08;3;3;
56688;PMS5003;42565;53.342;-1.534;2023-04-01T07:56:40;3;3;
56688;PMS5003;42565;53.342;-1.534;2023-04-01T07:59:16;6;4;
56688;PMS5003;42565;53.342;-1.534;2023-04-01T08:01:52;4;4;
56688;PMS5003;42565;53.342;-1.534;2023-04-01T08:04:30;4;4;
56688;PMS5003;42565;53.342;-1.534;2023-04-01T08:07:09;4;3;
56688;PMS5003;42565;53.342;-1.534;2023-04-01T08:09:42;3;3;
56688;PMS5003;42565;53.342;-1.534;2023-04-01T08:12:19;4;4;
56688;PMS5003;42565;53.342;-1.534;2023-04-01T08:14:59;5;4;
56688;PMS5003;42565;53.342;-1.534;2023-04-01T08:17:38;5;5;
56688;PMS5003;42565;53.342;-1.534;2023-04-01T08:20:16;5;5;
56688;PMS5003;42565;53.342;-1.534;2023-04-01T08:22:53;5;4;
56688;PMS5003;42565;53.342;-1.534;2023-04-01T08:25:28;5;5;
56688;PMS5003;42565;53.342;-1.534;2023-04-01T08:27:57;5;4;
56688;PMS5003;42565;53.342;-1.534;2023-04-01T08:30:32;3;2;
56688;PMS5003;42565;53.342;-1.534;2023-04-01T08:33:11;3;3;
56688;PMS5003;42565;53.342;-1.534;2023-04-01T08:35:45;5;4;
56688;PMS5003;42565;53.342;-1.534;2023-04-01T08:38:18;6;5;
56688;PMS5003;42565;53.342;-1.534;2023-04-01T08:40:55;4;4;
56688;PMS5003;42565;53.342;-1.534;2023-04-01T08:43:32;4;4;
56688;PMS5003;42565;53.342;-1.534;2023-04-01T08:46:17;4;4;
56688;PMS5003;42565;53.342;-1.534;2023-04-01T08:49:00;2;2;
56688;PMS5003;42565;53.342;-1.534;2023-04-01T08:51:49;5;4;
56688;PMS5003;42565;53.342;-1.534;2023-04-01T08:54:34;5;5;
56688;PMS5003;42565;53.342;-1.534;2023-04-01T08:57:15;6;5;
56688;PMS5003;42565;53.342;-1.534;2023-04-01T08:59:56;4;4;
56688;PMS5003;42565;53.342;-1.534;2023-04-01T09:03:43;5;5;
56688;PMS5003;42565;53.342;-1.534;2023-04-01T09:07:34;4;4;
56688;PMS5003;42565;53.342;-1.534;2023-04-01T09:10:21;4;4;
56688;PMS5003;42565;53.342;-1.534;2023-04-01T09:13:05;3;3;
56688;PMS5003;42565;53.342;-1.534;2023-04-01T09:15:49;3;3;
56688;PMS5003;42565;53.342;-1.534;2023-04-01T09:18:39;3;3;
56688;PMS5003;42565;53.342;-1.534;2023-04-01T09:21:21;2;2;
56688;PMS5003;42565;53.342;-1.534;2023-04-01T09:24:00;2;2;
56688;PMS5003;42565;53.342;-1.534;2023-04-01T09:26:58;2;2;
56688;PMS5003;42565;53.342;-1.534;2023-04-01T09:29:35;3;3;
56688;PMS5003;42565;53.342;-1.534;2023-04-01T09:32:31;2;2;
56688;PMS5003;42565;53.342;-1.534;2023-04-01T09:35:15;2;2;
56688;PMS5003;42565;53.342;-1.534;2023-04-01T09:37:52;3;3;
56688;PMS5003;42565;53.342;-1.534;2023-04-01T09:40:30;1;1;
56688;PMS5003;42565;53.342;-1.534;2023-04-01T09:43:07;1;1;
56688;PMS5003;42565;53.342;-1.534;2023-04-01T09:45:51;3;3;
56688;PMS5003;42565;53.342;-1.534;2023-04-01T09:48:35;3;3;
56688;PMS5003;42565;53.342;-1.534;2023-04-01T09:51:16;3;3;
56688;PMS5003;42565;53.342;-1.534;2023-04-01T09:53:57;2;2;
56688;PMS5003;42565;53.342;-1.534;2023-04-01T09:56:49;2;2;
56688;PMS5003;42565;53.342;-1.534;2023-04-01T10:00:39;2;2;
56688;PMS5003;42565;53.342;-1.534;2023-04-01T10:05:34;4;2;
56688;PMS5003;42565;53.342;-1.534;2023-04-01T10:10:18;5;4;
56688;PMS5003;42565;53.342;-1.534;2023-04-01T10:13:20;3;3;
56688;PMS5003;42565;53.342;-1.534;2023-04-01T10:16:18;3;3;
56688;PMS5003;42565;53.342;-1.534;2023-04-01T10:18:56;4;2;
56688;PMS5003;42565;53.342;-1.534;2023-04-01T10:21:45;2;2;
56688;PMS5003;42565;53.342;-1.534;2023-04-01T10:24:30;2;1;
56688;PMS5003;42565;53.342;-1.534;2023-04-01T10:27:21;2;1;
56688;PMS5003;42565;53.342;-1.534;2023-04-01T10:30:20;1;1;
56688;PMS5003;42565;53.342;-1.534;2023-04-01T10:33:08;2;2;
56688;PMS5003;42565;53.342;-1.534;2023-04-01T10:36:00;2;2;
56688;PMS5003;42565;53.342;-1.534;2023-04-01T10:38:52;3;2;
56688;PMS5003;42565;53.342;-1.534;2023-04-01T10:43:56;2;2;
56688;PMS5003;42565;53.342;-1.534;2023-04-01T10:46:43;3;3;
56688;PMS5003;42565;53.342;-1.534;2023-04-01T10:49:02;2;2;
56688;PMS5003;42565;53.342;-1.534;2023-04-01T10:54:06;2;2;
56688;PMS5003;42565;53.342;-1.534;2023-04-01T10:56:50;2;2;
56688;PMS5003;42565;53.342;-1.534;2023-04-01T10:59:59;3;3;
56688;PMS5003;42565;53.342;-1.534;2023-04-01T11:02:55;2;2;
56688;PMS5003;42565;53.342;-1.534;2023-04-01T11:05:47;3;3;
56688;PMS5003;42565;53.342;-1.534;2023-04-01T11:09:19;3;3;
56688;PMS5003;42565;53.342;-1.534;2023-04-01T11:11:47;3;3;
56688;PMS5003;42565;53.342;-1.534;2023-04-01T11:15:02;2;2;
56688;PMS5003;42565;53.342;-1.534;2023-04-01T11:17:23;2;2;
56688;PMS5003;42565;53.342;-1.534;2023-04-01T11:20:31;3;2;
56688;PMS5003;42565;53.342;-1.534;2023-04-01T11:23:14;4;4;
56688;PMS5003;42565;53.342;-1.534;2023-04-01T11:25:59;6;6;
56688;PMS5003;42565;53.342;-1.534;2023-04-01T11:28:42;3;3;
56688;PMS5003;42565;53.342;-1.534;2023-04-01T11:31:24;3;3;
56688;PMS5003;42565;53.342;-1.534;2023-04-01T11:34:02;2;2;
56688;PMS5003;42565;53.342;-1.534;2023-04-01T11:36:40;3;3;
56688;PMS5003;42565;53.342;-1.534;2023-04-01T11:39:20;2;2;
56688;PMS5003;42565;53.342;-1.534;2023-04-01T11:41:58;3;3;
56688;PMS5003;42565;53.342;-1.534;2023-04-01T11:44:38;2;2;
56688;PMS5003;42565;53.342;-1.534;2023-04-01T11:47:18;2;2;
56688;PMS5003;42565;53.342;-1.534;2023-04-01T11:49:59;3;3;
56688;PMS5003;42565;53.342;-1.534;2023-04-01T11:52:50;1;1;
56688;PMS5003;42565;53.342;-1.534;2023-04-01T11:55:32;2;2;
56688;PMS5003;42565;53.342;-1.534;2023-04-01T11:58:18;2;2;
56688;PMS5003;42565;53.342;-1.534;2023-04-01T12:00:55;1;1;
56688;PMS5003;42565;53.342;-1.534;2023-04-01T12:03:34;1;1;
56688;PMS5003;42565;53.342;-1.534;2023-04-01T12:06:14;2;2;
56688;PMS5003;42565;53.342;-1.534;2023-04-01T12:08:50;5;4;
56688;PMS5003;42565;53.342;-1.534;2023-04-01T12:11:22;3;3;
56688;PMS5003;42565;53.342;-1.534;2023-04-01T12:13:58;3;3;
56688;PMS5003;42565;53.342;-1.534;2023-04-01T12:16:39;3;3;
56688;PMS5003;42565;53.342;-1.534;2023-04-01T12:19:17;3;3;
56688;PMS5003;42565;53.342;-1.534;2023-04-01T12:21:54;3;3;
56688;PMS5003;42565;53.342;-1.534;2023-04-01T12:24:36;3;3;
56688;PMS5003;42565;53.342;-1.534;2023-04-01T12:27:14;3;3;
56688;PMS5003;42565;53.342;-1.534;2023-04-01T12:29:58;3;3;
56688;PMS5003;42565;53.342;-1.534;2023-04-01T12:32:43;0;0;
56688;PMS5003;42565;53.342;-1.534;2023-04-01T12:35:21;2;2;
56688;PMS5003;42565;53.342;-1.534;2023-04-01T12:37:59;1;1;
56688;PMS5003;42565;53.342;-1.534;2023-04-01T12:40:43;1;1;
56688;PMS5003;42565;53.342;-1.534;2023-04-01T12:43:22;1;1;
56688;PMS5003;42565;53.342;-1.534;2023-04-01T12:46:20;3;2;
56688;PMS5003;42565;53.342;-1.534;2023-04-01T12:49:01;1;1;
56688;PMS5003;42565;53.342;-1.534;2023-04-01T12:51:55;2;1;
56688;PMS5003;42565;53.342;-1.534;2023-04-01T12:54:38;3;2;
56688;PMS5003;42565;53.342;-1.534;2023-04-01T12:57:23;2;2;
56688;PMS5003;42565;53.342;-1.534;2023-04-01T13:00:11;2;2;
56688;PMS5003;42565;53.342;-1.534;2023-04-01T13:02:53;2;2;
56688;PMS5003;42565;53.342;-1.534;2023-04-01T13:06:11;1;1;
56688;PMS5003;42565;53.342;-1.534;2023-04-01T13:09:26;3;2;
56688;PMS5003;42565;53.342;-1.534;2023-04-01T13:12:09;3;3;
56688;PMS5003;42565;53.342;-1.534;2023-04-01T13:14:56;3;3;
56688;PMS5003;42565;53.342;-1.534;2023-04-01T13:17:33;1;1;
56688;PMS5003;42565;53.342;-1.534;2023-04-01T13:20:12;2;2;
56688;PMS5003;42565;53.342;-1.534;2023-04-01T13:22:53;2;2;
56688;PMS5003;42565;53.342;-1.534;2023-04-01T13:25:32;2;2;
56688;PMS5003;42565;53.342;-1.534;2023-04-01T13:28:09;1;1;
56688;PMS5003;42565;53.342;-1.534;2023-04-01T13:30:43;2;2;
56688;PMS5003;42565;53.342;-1.534;2023-04-01T13:33:24;2;2;
56688;PMS5003;42565;53.342;-1.534;2023-04-01T13:35:58;2;2;
56688;PMS5003;42565;53.342;-1.534;2023-04-01T13:38:43;2;1;
56688;PMS5003;42565;53.342;-1.534;2023-04-01T13:41:26;1;1;
56688;PMS5003;42565;53.342;-1.534;2023-04-01T13:44:06;0;0;
56688;PMS5003;42565;53.342;-1.534;2023-04-01T13:46:43;2;2;
56688;PMS5003;42565;53.342;-1.534;2023-04-01T13:49:23;3;3;
56688;PMS5003;42565;53.342;-1.534;2023-04-01T13:52:06;4;3;
56688;PMS5003;42565;53.342;-1.534;2023-04-01T13:54:47;3;3;
56688;PMS5003;42565;53.342;-1.534;2023-04-01T13:57:32;3;3;
56688;PMS5003;42565;53.342;-1.534;2023-04-01T14:00:19;3;3;
56688;PMS5003;42565;53.342;-1.534;2023-04-01T14:03:04;3;3;
56688;PMS5003;42565;53.342;-1.534;2023-04-01T14:05:44;3;2;
56688;PMS5003;42565;53.342;-1.534;2023-04-01T14:08:26;2;2;
56688;PMS5003;42565;53.342;-1.534;2023-04-01T14:11:07;3;3;
56688;PMS5003;42565;53.342;-1.534;2023-04-01T14:13:44;3;2;
56688;PMS5003;42565;53.342;-1.534;2023-04-01T14:16:27;1;1;
56688;PMS5003;42565;53.342;-1.534;2023-04-01T14:19:10;2;2;
56688;PMS5003;42565;53.342;-1.534;2023-04-01T14:21:49;2;2;
56688;PMS5003;42565;53.342;-1.534;2023-04-01T14:24:22;2;2;
56688;PMS5003;42565;53.342;-1.534;2023-04-01T14:27:20;1;1;
56688;PMS5003;42565;53.342;-1.534;2023-04-01T14:30:00;2;2;
56688;PMS5003;42565;53.342;-1.534;2023-04-01T14:32:43;2;2;
56688;PMS5003;42565;53.342;-1.534;2023-04-01T14:35:21;1;1;
56688;PMS5003;42565;53.342;-1.534;2023-04-01T14:38:01;3;2;
56688;PMS5003;42565;53.342;-1.534;2023-04-01T14:40:44;3;2;
56688;PMS5003;42565;53.342;-1.534;2023-04-01T14:43:22;2;2;
56688;PMS5003;42565;53.342;-1.534;2023-04-01T14:46:14;3;3;
56688;PMS5003;42565;53.342;-1.534;2023-04-01T14:48:59;4;4;
56688;PMS5003;42565;53.342;-1.534;2023-04-01T14:51:29;3;3;
56688;PMS5003;42565;53.342;-1.534;2023-04-01T14:54:02;4;3;
56688;PMS5003;42565;53.342;-1.534;2023-04-01T14:56:37;3;3;
56688;PMS5003;42565;53.342;-1.534;2023-04-01T14:59:09;4;4;
56688;PMS5003;42565;53.342;-1.534;2023-04-01T15:01:45;7;5;
56688;PMS5003;42565;53.342;-1.534;2023-04-01T15:04:25;6;5;
56688;PMS5003;42565;53.342;-1.534;2023-04-01T15:07:09;6;5;
56688;PMS5003;42565;53.342;-1.534;2023-04-01T15:10:31;3;3;
56688;PMS5003;42565;53.342;-1.534;2023-04-01T15:13:46;7;7;
56688;PMS5003;42565;53.342;-1.534;2023-04-01T15:16:27;7;7;
56688;PMS5003;42565;53.342;-1.534;2023-04-01T15:19:03;7;7;
56688;PMS5003;42565;53.342;-1.534;2023-04-01T15:21:43;6;6;
56688;PMS5003;42565;53.342;-1.534;2023-04-01T15:24:21;6;6;
56688;PMS5003;42565;53.342;-1.534;2023-04-01T15:26:56;5;4;
56688;PMS5003;42565;53.342;-1.534;2023-04-01T15:29:40;4;4;
56688;PMS5003;42565;53.342;-1.534;2023-04-01T15:32:21;4;4;
56688;PMS5003;42565;53.342;-1.534;2023-04-01T15:34:57;5;5;
56688;PMS5003;42565;53.342;-1.534;2023-04-01T15:37:37;5;5;
56688;PMS5003;42565;53.342;-1.534;2023-04-01T15:40:14;4;3;
56688;PMS5003;42565;53.342;-1.534;2023-04-01T15:42:51;5;5;
56688;PMS5003;42565;53.342;-1.534;2023-04-01T15:45:31;5;5;
56688;PMS5003;42565;53.342;-1.534;2023-04-01T15:48:06;5;5;
56688;PMS5003;42565;53.342;-1.534;2023-04-01T15:50:50;5;5;
56688;PMS5003;42565;53.342;-1.534;2023-04-01T15:53:25;5;5;
56688;PMS5003;42565;53.342;-1.534;2023-04-01T15:56:10;5;5;
56688;PMS5003;42565;53.342;-1.534;2023-04-01T15:58:48;4;4;
56688;PMS5003;42565;53.342;-1.534;2023-04-01T16:01:26;6;6;
56688;PMS5003;42565;53.342;-1.534;2023-04-01T16:04:06;5;5;
56688;PMS5003;42565;53.342;-1.534;2023-04-01T16:06:53;6;5;
56688;PMS5003;42565;53.342;-1.534;2023-04-01T16:09:36;4;4;
56688;PMS5003;42565;53.342;-1.534;2023-04-01T16:12:18;5;5;
56688;PMS5003;42565;53.342;-1.534;2023-04-01T16:14:55;8;7;
56688;PMS5003;42565;53.342;-1.534;2023-04-01T16:17:35;7;7;
56688;PMS5003;42565;53.342;-1.534;2023-04-01T16:20:20;6;6;
56688;PMS5003;42565;53.342;-1.534;2023-04-01T16:22:53;6;6;
56688;PMS5003;42565;53.342;-1.534;2023-04-01T16:25:28;9;7;
56688;PMS5003;42565;53.342;-1.534;2023-04-01T16:28:03;8;8;
56688;PMS5003;42565;53.342;-1.534;2023-04-01T16:30:44;11;9;
56688;PMS5003;42565;53.342;-1.534;2023-04-01T16:33:20;6;6;
56688;PMS5003;42565;53.342;-1.534;2023-04-01T16:35:55;7;7;
56688;PMS5003;42565;53.342;-1.534;2023-04-01T16:38:31;7;7;
56688;PMS5003;42565;53.342;-1.534;2023-04-01T16:41:10;7;7;
56688;PMS5003;42565;53.342;-1.534;2023-04-01T16:43:42;8;7;
56688;PMS5003;42565;53.342;-1.534;2023-04-01T16:46:16;7;6;
56688;PMS5003;42565;53.342;-1.534;2023-04-01T16:48:57;9;9;
56688;PMS5003;42565;53.342;-1.534;2023-04-01T16:51:30;6;5;
56688;PMS5003;42565;53.342;-1.534;2023-04-01T16:54:05;7;6;
56688;PMS5003;42565;53.342;-1.534;2023-04-01T16:56:42;7;7;
56688;PMS5003;42565;53.342;-1.534;2023-04-01T16:59:15;6;5;
56688;PMS5003;42565;53.342;-1.534;2023-04-01T17:01:50;8;7;
56688;PMS5003;42565;53.342;-1.534;2023-04-01T17:04:25;6;6;
56688;PMS5003;42565;53.342;-1.534;2023-04-01T17:07:01;11;10;
56688;PMS5003;42565;53.342;-1.534;2023-04-01T17:09:42;11;11;
56688;PMS5003;42565;53.342;-1.534;2023-04-01T17:12:25;9;9;
56688;PMS5003;42565;53.342;-1.534;2023-04-01T17:15:02;8;8;
56688;PMS5003;42565;53.342;-1.534;2023-04-01T17:17:42;7;6;
56688;PMS5003;42565;53.342;-1.534;2023-04-01T17:20:20;10;9;
56688;PMS5003;42565;53.342;-1.534;2023-04-01T17:22:59;8;8;
56688;PMS5003;42565;53.342;-1.534;2023-04-01T17:25:34;9;9;
56688;PMS5003;42565;53.342;-1.534;2023-04-01T17:28:15;10;10;
56688;PMS5003;42565;53.342;-1.534;2023-04-01T17:30:53;10;9;
56688;PMS5003;42565;53.342;-1.534;2023-04-01T17:33:40;8;8;
56688;PMS5003;42565;53.342;-1.534;2023-04-01T17:36:20;6;6;
56688;PMS5003;42565;53.342;-1.534;2023-04-01T17:39:01;9;8;
56688;PMS5003;42565;53.342;-1.534;2023-04-01T17:41:45;8;8;
56688;PMS5003;42565;53.342;-1.534;2023-04-01T17:44:23;8;8;
56688;PMS5003;42565;53.342;-1.534;2023-04-01T17:47:03;8;7;
56688;PMS5003;42565;53.342;-1.534;2023-04-01T17:49:45;9;8;